createdAt,value
2023-04-16T00:00:55.813Z,9.1
2023-04-16T00:02:57.926Z,10.3
2023-04-16T00:04:59.815Z,10.5
2023-04-16T00:07:01.886Z,10.3
2023-04-16T00:09:07.341Z,9.8
2023-04-16T00:11:08.980Z,9.5
2023-04-16T00:13:10.962Z,10.8
2023-04-16T00:15:12.923Z,10.8
2023-04-16T00:17:14.918Z,11.7
2023-04-16T00:19:16.921Z,11.8
2023-04-16T00:21:18.882Z,10.1
2023-04-16T00:23:24.060Z,11.1
2023-04-16T00:27:28.095Z,12.4
2023-04-16T00:29:30.052Z,13.5
2023-04-16T00:33:33.992Z,12.1
2023-04-16T00:35:35.972Z,11.6
2023-04-16T00:39:43.190Z,11.7
2023-04-16T00:41:45.173Z,12.1
2023-04-16T00:42:47.787Z,13.7
2023-04-16T00:44:49.757Z,13
2023-04-16T00:46:51.749Z,12.2
2023-04-16T00:50:58.942Z,13.6
2023-04-16T00:53:00.918Z,12.8
2023-04-16T00:55:02.910Z,13.7
2023-04-16T00:57:04.923Z,12
2023-04-16T00:59:07.085Z,12.7
2023-04-16T01:01:08.962Z,12.3
2023-04-16T01:05:16.110Z,12.6
2023-04-16T01:07:18.096Z,13.3
2023-04-16T01:09:20.122Z,12.6
2023-04-16T01:11:23.608Z,13.2
2023-04-16T01:13:25.534Z,13.7
2023-04-16T01:15:27.813Z,13
2023-04-16T01:19:34.710Z,14.2
2023-04-16T01:29:44.626Z,14.1
2023-04-16T01:31:46.804Z,13.1
2023-04-16T01:35:53.821Z,14
2023-04-16T01:41:00.380Z,15.4
2023-04-16T01:43:02.383Z,14.1
2023-04-16T01:47:09.560Z,15.3
2023-04-16T01:49:11.823Z,14.6
2023-04-16T01:51:13.577Z,17.6
2023-04-16T01:53:15.510Z,15.4
2023-04-16T01:55:17.502Z,14.5
2023-04-16T01:57:19.502Z,15
2023-04-16T01:59:21.502Z,15.2
2023-04-16T02:01:26.721Z,16.8
2023-04-16T02:03:28.858Z,16.2
2023-04-16T02:05:32.186Z,16.3
2023-04-16T02:07:32.672Z,16.7
2023-04-16T02:09:34.666Z,17.6
2023-04-16T02:11:36.645Z,16.7
2023-04-16T02:13:38.623Z,17.9
2023-04-16T02:15:43.823Z,16.9
2023-04-16T02:34:04.926Z,17.3
2023-04-16T02:36:33.805Z,17.9
2023-04-16T02:38:35.791Z,19.4
2023-04-16T02:40:37.778Z,18
2023-04-16T02:44:44.975Z,19.3
2023-04-16T02:46:46.982Z,18.7
2023-04-16T02:48:49.428Z,17
2023-04-16T02:50:51.386Z,19.1
2023-04-16T02:52:53.416Z,20
2023-04-16T02:54:55.377Z,19.3
2023-04-16T02:57:00.590Z,20.4
2023-04-16T02:59:02.560Z,18.9
2023-04-16T03:01:04.572Z,19.9
2023-04-16T03:03:06.596Z,20.2
2023-04-16T03:05:08.514Z,18.4
2023-04-16T03:07:10.492Z,16.7
2023-04-16T03:09:12.571Z,18.4
2023-04-16T03:11:17.667Z,19.7
2023-04-16T03:13:19.645Z,20.3
2023-04-16T03:15:21.648Z,18.3
2023-04-16T03:19:25.580Z,21.9
2023-04-16T03:25:34.749Z,21.2
2023-04-16T03:27:36.744Z,22.4
2023-04-16T03:30:41.331Z,20.3
2023-04-16T03:32:43.329Z,20.4
2023-04-16T03:34:45.236Z,23.2
2023-04-16T03:38:52.431Z,22.5
2023-04-16T03:40:54.428Z,19.9
2023-04-16T03:42:56.432Z,22.1
2023-04-16T03:44:58.390Z,18.9
2023-04-16T03:47:00.343Z,21.8
2023-04-16T03:49:02.369Z,21.7
2023-04-16T03:51:04.308Z,20.5
2023-04-16T03:53:09.531Z,22.3
2023-04-16T03:55:11.494Z,22.4
2023-04-16T03:57:13.491Z,20.8
2023-04-16T03:59:15.457Z,23
2023-04-16T04:01:17.467Z,22.2
2023-04-16T04:03:19.774Z,20.5
2023-04-16T04:05:21.384Z,21.2
2023-04-16T04:09:28.554Z,22
2023-04-16T04:13:32.559Z,22.3
2023-04-16T04:17:36.549Z,21.4
2023-04-16T04:19:42.298Z,23.5
2023-04-16T04:21:43.688Z,22.4
2023-04-16T04:23:45.632Z,20.4
2023-04-16T04:25:47.700Z,19.7
2023-04-16T04:26:50.280Z,23.2
2023-04-16T04:28:52.250Z,23.2
2023-04-16T04:30:54.257Z,20
2023-04-16T04:45:11.274Z,20.4
2023-04-16T04:47:13.263Z,20
2023-04-16T04:53:22.405Z,20.6
2023-04-16T05:19:54.636Z,23.2
2023-04-16T05:31:10.377Z,22.5
2023-04-16T05:33:12.339Z,24.3
2023-04-16T05:35:15.993Z,22.8
2023-04-16T05:41:20.205Z,21.6
2023-04-16T05:43:22.195Z,22.4
2023-04-16T05:49:31.376Z,27
2023-04-16T05:55:37.300Z,21
2023-04-16T06:01:50.300Z,24.4
2023-04-16T06:16:03.591Z,21.6
2023-04-16T06:18:05.549Z,19.2
2023-04-16T06:20:34.431Z,24
2023-04-16T06:22:36.367Z,19.6
2023-04-16T06:24:38.358Z,22.3
2023-04-16T06:26:43.554Z,20.4
2023-04-16T06:28:45.552Z,20.4
2023-04-16T06:30:47.615Z,18.1
2023-04-16T06:32:49.681Z,19.3
2023-04-16T06:34:51.496Z,18.6
2023-04-16T06:36:53.478Z,22.1
2023-04-16T06:38:55.474Z,17.5
2023-04-16T06:41:00.678Z,22.5
2023-04-16T06:47:06.671Z,18.9
2023-04-16T06:51:10.578Z,21.3
2023-04-16T06:53:12.570Z,21.9
2023-04-16T06:55:17.783Z,22.4
2023-04-16T06:59:21.736Z,24
2023-04-16T07:11:38.416Z,20.9
2023-04-16T07:13:40.402Z,25.1
2023-04-16T07:14:43.000Z,24.7
2023-04-16T07:16:45.051Z,22.7
2023-04-16T07:18:46.985Z,23.3
2023-04-16T07:20:48.938Z,22.4
2023-04-16T07:33:04.164Z,22.5
2023-04-16T07:47:22.165Z,22.6
2023-04-16T07:49:24.077Z,24.8
2023-04-16T08:01:39.215Z,24.5
2023-04-16T08:03:41.471Z,23
2023-04-16T08:07:48.397Z,22.2
2023-04-16T08:09:50.384Z,24.4
2023-04-16T08:10:52.978Z,23.8
2023-04-16T08:12:54.960Z,21.4
2023-04-16T08:16:58.970Z,23.1
2023-04-16T08:21:06.130Z,25.4
2023-04-16T08:27:19.434Z,22.2
2023-04-16T08:29:14.060Z,24.1
2023-04-16T08:31:16.108Z,23.6
2023-04-16T08:33:21.269Z,25.3
2023-04-16T08:35:23.249Z,22
2023-04-16T08:37:25.214Z,22.4
2023-04-16T08:39:27.232Z,22.3
2023-04-16T08:41:29.235Z,23.4
2023-04-16T08:43:31.185Z,22.3
2023-04-16T08:45:33.190Z,23.3
2023-04-16T08:47:38.446Z,24.1
2023-04-16T08:49:40.431Z,25
2023-04-16T08:51:42.357Z,22.1
2023-04-16T08:53:44.379Z,23.7
2023-04-16T08:55:46.351Z,22.6
2023-04-16T08:59:50.322Z,21.6
2023-04-16T09:03:57.626Z,22.2
2023-04-16T09:05:59.536Z,20.4
2023-04-16T09:07:02.183Z,20.4
2023-04-16T09:09:04.161Z,20.5
2023-04-16T09:11:06.152Z,19.8
2023-04-16T09:13:08.148Z,21.8
2023-04-16T09:15:13.363Z,21.6
2023-04-16T09:17:15.339Z,20.4
2023-04-16T09:19:17.384Z,19.5
2023-04-16T09:21:19.994Z,19.7
2023-04-16T09:31:32.301Z,16.5
2023-04-16T09:33:35.043Z,18.1
2023-04-16T09:35:36.153Z,18.7
2023-04-16T09:37:38.558Z,17.6
2023-04-16T09:55:58.888Z,14.8
2023-04-16T10:02:15.005Z,18.4
2023-04-16T10:04:36.375Z,17.1
2023-04-16T10:08:40.051Z,16.6
2023-04-16T10:10:45.061Z,22.4
2023-04-16T10:12:46.936Z,15.4
2023-04-16T10:14:50.056Z,16.4
2023-04-16T10:16:50.705Z,14.5
2023-04-16T10:18:52.581Z,15.6
2023-04-16T10:20:54.458Z,15.9
2023-04-16T10:22:56.321Z,16
2023-04-16T10:27:03.244Z,20.9
2023-04-16T10:37:12.650Z,24
2023-04-16T10:41:19.516Z,15.4
2023-04-16T10:43:21.385Z,22.9
2023-04-16T10:45:23.266Z,43.1
2023-04-16T10:47:25.149Z,17.4
2023-04-16T10:57:37.671Z,47.2
2023-04-16T10:58:40.165Z,30
2023-04-16T11:04:46.004Z,17.4
2023-04-16T11:06:50.826Z,21.1
2023-04-16T11:08:55.081Z,16.9
2023-04-16T11:12:56.461Z,19.4
2023-04-16T11:14:58.335Z,23.8
2023-04-16T11:17:00.227Z,19.5
2023-04-16T11:19:02.100Z,15.4
2023-04-16T11:21:07.111Z,15.2
2023-04-16T11:23:08.985Z,13.8
2023-04-16T11:25:10.866Z,13.4
2023-04-16T11:27:12.764Z,13.5
2023-04-16T11:29:14.667Z,14.4
2023-04-16T11:31:16.628Z,15.3
2023-04-16T11:33:18.438Z,13.6
2023-04-16T11:35:23.444Z,17.5
2023-04-16T11:39:27.205Z,14.4
2023-04-16T11:41:29.069Z,13
2023-04-16T11:43:30.939Z,12.5
2023-04-16T11:45:32.804Z,13.4
2023-04-16T11:49:39.693Z,11.4
2023-04-16T11:51:41.588Z,11.6
2023-04-16T11:53:43.442Z,13.8
2023-04-16T11:54:45.936Z,13.6
2023-04-16T11:56:47.893Z,13.4
2023-04-16T11:58:49.668Z,12.6
2023-04-16T12:11:04.040Z,12.1
2023-04-16T12:17:12.908Z,21
2023-04-16T12:19:14.682Z,14.1
2023-04-16T12:45:45.522Z,14.3
2023-04-16T12:50:51.689Z,16.2
2023-04-16T12:52:53.551Z,13.5
2023-04-16T12:54:56.957Z,13.3
2023-04-16T13:07:11.331Z,14.4
2023-04-16T13:11:15.061Z,12.4
2023-04-16T13:13:20.077Z,11.7
2023-04-16T13:17:23.806Z,12.6
2023-04-16T13:19:25.676Z,12.2
2023-04-16T13:21:27.558Z,12.2
2023-04-16T13:23:29.418Z,12.4
2023-04-16T13:25:31.647Z,12.2
2023-04-16T13:27:36.295Z,10.5
2023-04-16T13:29:38.170Z,12
2023-04-16T13:31:40.094Z,11.3
2023-04-16T13:33:41.901Z,10.4
2023-04-16T13:35:43.800Z,11.1
2023-04-16T13:37:45.630Z,12.6
2023-04-16T13:39:47.501Z,11.8
2023-04-16T13:41:52.512Z,12.3
2023-04-16T13:43:54.359Z,11.8
2023-04-16T13:45:56.245Z,11.3
2023-04-16T13:58:38.116Z,10.9
2023-04-16T14:10:55.111Z,12.7
2023-04-16T14:12:54.410Z,11.5
2023-04-16T14:14:56.257Z,12.1
2023-04-16T14:16:58.175Z,12
2023-04-16T14:19:00.092Z,11.3
2023-04-16T14:21:01.960Z,9.5
2023-04-16T14:23:06.955Z,11.4
2023-04-16T14:25:08.835Z,9.6
2023-04-16T14:27:10.716Z,11.6
2023-04-16T14:29:12.727Z,11.6
2023-04-16T14:31:14.539Z,10.8
2023-04-16T14:33:16.359Z,10.4
2023-04-16T14:44:31.448Z,10.1
2023-04-16T14:46:33.332Z,13.4
2023-04-16T14:48:35.207Z,13.9
2023-04-16T14:50:40.407Z,11.8
2023-04-16T14:52:42.083Z,12.9
2023-04-16T14:54:43.986Z,11.1
2023-04-16T14:56:45.869Z,12.6
2023-04-16T14:58:47.770Z,12.2
2023-04-16T15:00:49.679Z,11.1
2023-04-16T15:02:51.874Z,11.9
2023-04-16T15:04:56.570Z,11.9
2023-04-16T15:06:58.441Z,13.2
2023-04-16T15:09:00.324Z,12.4
2023-04-16T15:11:02.203Z,12.7
2023-04-16T15:15:06.003Z,11.2
2023-04-16T15:17:08.013Z,37.5
2023-04-16T15:19:13.028Z,15.5
2023-04-16T15:21:14.792Z,17.7
2023-04-16T15:23:16.647Z,13
2023-04-16T15:25:18.534Z,23.1
2023-04-16T15:27:20.421Z,18.5
2023-04-16T15:31:24.255Z,12.9
2023-04-16T15:33:29.213Z,11.5
2023-04-16T15:38:36.168Z,10.2
2023-04-16T15:40:38.046Z,11.1
2023-04-16T15:44:41.798Z,11
2023-04-16T15:46:46.968Z,10.9
2023-04-16T15:48:48.719Z,10.8
2023-04-16T15:50:50.596Z,11.6
2023-04-16T15:52:52.499Z,11
2023-04-16T15:54:54.371Z,12.1
2023-04-16T15:56:56.251Z,13.2
2023-04-16T15:58:58.114Z,11.8
2023-04-16T16:01:03.902Z,14.4
2023-04-16T16:03:05.205Z,11.5
2023-04-16T16:05:06.936Z,12.4
2023-04-16T16:07:08.815Z,13.1
2023-04-16T16:11:12.564Z,14.3
2023-04-16T16:29:35.791Z,14.2
2023-04-16T16:34:42.081Z,13.3
2023-04-16T16:36:43.978Z,12.7
2023-04-16T16:42:52.860Z,12.8
2023-04-16T16:51:00.331Z,13
2023-04-16T17:05:16.690Z,14.5
2023-04-16T17:25:41.854Z,13.9
2023-04-16T17:27:43.754Z,15.5
2023-04-16T17:29:45.743Z,13.7
2023-04-16T17:40:25.383Z,13.8
2023-04-16T17:46:31.268Z,13.1
2023-04-16T17:50:36.462Z,14.9
2023-04-16T17:54:41.929Z,16
2023-04-16T17:58:45.908Z,16.2
2023-04-16T18:00:47.788Z,19
2023-04-16T18:02:50.014Z,14.7
2023-04-16T18:06:56.810Z,17.4
2023-04-16T18:08:58.687Z,15.4
2023-04-16T18:11:00.561Z,16.5
2023-04-16T18:13:02.498Z,16.4
2023-04-16T18:23:15.381Z,17.4
2023-04-16T18:26:22.254Z,18.4
2023-04-16T18:28:22.186Z,17.1
2023-04-16T18:32:26.160Z,19.9
2023-04-16T18:34:31.073Z,25.5
2023-04-16T18:36:32.967Z,44.5
2023-04-16T18:38:34.957Z,23.7
2023-04-16T18:40:36.858Z,18.9
2023-04-16T18:48:49.632Z,21.8
2023-04-16T18:52:53.480Z,21.5
2023-04-16T18:54:55.377Z,20.5
2023-04-16T18:56:58.652Z,17.9
2023-04-16T18:58:59.388Z,18.8
2023-04-16T19:01:01.400Z,17.4
2023-04-16T19:03:07.266Z,17
2023-04-16T19:05:08.505Z,19.5
2023-04-16T19:07:10.520Z,19.5
2023-04-16T19:13:16.462Z,18.4
2023-04-16T19:15:18.334Z,18.9
2023-04-16T19:22:29.953Z,19.1
2023-04-16T19:24:34.113Z,18.8
2023-04-16T19:26:33.937Z,18
2023-04-16T19:28:35.922Z,18.4
2023-04-16T19:30:41.154Z,20
2023-04-16T19:32:43.073Z,23.1
2023-04-16T19:34:45.047Z,27.7
2023-04-16T19:36:47.017Z,29.8
2023-04-16T19:38:49.015Z,24.4
2023-04-16T19:40:51.002Z,20.7
2023-04-16T19:42:53.004Z,19.4
2023-04-16T19:44:58.258Z,17.2
2023-04-16T19:49:02.301Z,20.6
2023-04-16T19:51:04.271Z,17.6
2023-04-16T19:53:06.226Z,18.9
2023-04-16T19:55:08.226Z,19.9
2023-04-16T19:57:10.221Z,18.3
2023-04-16T19:59:15.448Z,20.5
2023-04-16T20:01:17.570Z,20.3
2023-04-16T20:03:19.499Z,17.3
2023-04-16T20:05:21.451Z,20.6
2023-04-16T20:07:23.469Z,21.3
2023-04-16T20:09:25.454Z,20.3
2023-04-16T20:11:27.399Z,23.3
2023-04-16T20:13:32.543Z,30.3
2023-04-16T20:15:34.537Z,31.6
2023-04-16T20:18:39.144Z,21.6
2023-04-16T20:20:41.147Z,18.6
2023-04-16T20:22:43.150Z,21.3
2023-04-16T20:24:46.915Z,19
2023-04-16T20:26:50.349Z,16.8
2023-04-16T20:28:52.376Z,20.5
2023-04-16T20:34:58.333Z,16.4
2023-04-16T20:37:00.313Z,16.9
2023-04-16T20:39:02.306Z,15.8
2023-04-16T20:41:07.537Z,18.8
2023-04-16T20:43:09.527Z,16.5
2023-04-16T20:47:13.529Z,17.3
2023-04-16T20:51:17.503Z,16.8
2023-04-16T20:53:19.505Z,16.8
2023-04-16T20:55:24.708Z,18.7
2023-04-16T20:57:26.722Z,20.1
2023-04-16T20:59:28.737Z,18.2
2023-04-16T21:01:30.831Z,17.6
2023-04-16T21:03:32.845Z,17.8
2023-04-16T21:05:34.690Z,18
2023-04-16T21:09:41.949Z,19.1
2023-04-16T21:11:43.904Z,19.4
2023-04-16T21:16:14.773Z,21.2
2023-04-16T21:20:18.743Z,21.3
2023-04-16T21:22:23.938Z,20.5
2023-04-16T21:26:27.910Z,18.7
2023-04-16T21:28:29.907Z,18.8
2023-04-16T21:30:31.874Z,18.8
2023-04-16T21:34:35.866Z,22
2023-04-16T21:36:41.093Z,20.1
2023-04-16T21:38:43.062Z,20.8
2023-04-16T21:40:45.060Z,19.9
2023-04-16T21:46:51.082Z,21.6
2023-04-16T21:48:52.982Z,17.6
2023-04-16T21:50:58.282Z,19.5
2023-04-16T21:55:02.288Z,18.5
2023-04-16T21:57:04.171Z,18.9
2023-04-16T21:59:06.145Z,19
2023-04-16T22:01:10.849Z,18.8
2023-04-16T22:12:23.924Z,19.2
2023-04-16T22:18:33.314Z,22.9
2023-04-16T22:20:35.063Z,20.7
2023-04-16T22:26:41.005Z,22.3
2023-04-16T22:28:42.948Z,20.9
2023-04-16T22:30:44.947Z,20.2
2023-04-16T22:32:50.152Z,22.9
2023-04-16T22:34:52.123Z,22.7
2023-04-16T22:36:54.121Z,22.3
2023-04-16T22:38:56.123Z,21.8
2023-04-16T22:40:58.093Z,22.1
2023-04-16T22:43:00.057Z,22.7
2023-04-16T22:45:02.024Z,21.9
2023-04-16T22:47:07.279Z,23.4
2023-04-16T22:49:09.347Z,22.5
2023-04-16T22:51:11.256Z,21.2
2023-04-16T22:53:13.209Z,20.6
2023-04-16T22:55:15.178Z,22.3
2023-04-16T22:57:17.144Z,20.5
2023-04-16T23:01:24.375Z,24.3
2023-04-16T23:05:28.307Z,25.2
2023-04-16T23:06:30.907Z,21.2
2023-04-16T23:08:32.856Z,20.4
2023-04-16T23:10:34.848Z,24.1
2023-04-16T23:12:36.811Z,22.4
2023-04-16T23:14:42.012Z,22.3
2023-04-16T23:16:43.983Z,21.7
2023-04-16T23:18:45.952Z,21.1
2023-04-16T23:24:51.865Z,18.8
2023-04-16T23:26:53.857Z,22
2023-04-16T23:33:03.089Z,21.4
2023-04-16T23:41:10.906Z,22.6
